Create Custom Reports and Graphics: Custom Report

Kelseyville-South

Current Conditions

10/6/22 9:45 AM (-07:00)
Updated Every 15 Minutes
Temp 68.0 °F   1.7
RH 3 %   0
Dew Pt -15.8 °F   1.2
Wind Spd 0.0 mph   0.5
Wind Dir WSW | 241 °
Wind Gust 1.1 mph   1.7
Solar Rad 445 W/m2   8
Leaf Wet 0.0 mins
BatVolt 13.5 V

Today & Yesterday

Kelseyville-South

10/6/22 9:45 AM (-07:00)
Updated Every 15 Minutes
Daily Max Temp 68.5 °F   1.6
Time of Max Temp 0934
Daily Min Temp 45.8 °F   1.9
Time of Min Temp 0700
Daily Max Wind 3.1 mph   0.0
Time of Max Wind 0201
Max Wind Dir S | 169 °
Daily Rain 0.00 In
Daily ETo 0.001 in   0.001
Daily Leaf Wet Hrs 3.1 hrs
Yest MaxT 88.2 °F
Yest MinT 43.9 °F
Yest MaxGst 11.5 mph
Yest Rain 0.00 In
Yest ETo 0.15 In
Leaf Wet Hrs Yest 0.0 Hours

Last 48 Hours

Kelseyville-South

Hourly Data | America/Los_Angeles
as of 10/6/22 9:46 AM PDT
Date & Time Temp (°F) RH (%) Dew Pt (°F) Wet Bulb (°F) Wind Dir (°) Wind Spd (mph) Wind Gust (mph) Wind Gst Dir (°) Solar Rad (W/m2) Leaf Wet (mins) Latest Rain (In) Daily Rain (In) Daily Min Temp (°F) Daily Max Temp (°F) Daily ETo (in) Daily Leaf Wet Hrs (hrs)
10/6/22 - 0900 56.9 3 -23.3 36.9 SSW | 204 0.0 2.1 SSW | 206 195 13.2 0.00 0.00 45.8 61.2 0.001 3.1
10/6/22 - 0800 46.8 3 -30.2 31.3 SSE | 151 0.8 2.4 ESE | 118 36 60.0 0.00 0.00 45.8 53.1 0.000 2.8
10/6/22 - 0700 46.5 3 -30.5 31.1 SE | 141 0.5 2.1 SE | 139 0 60.0 0.00 0.00 45.8 53.1 0.000 1.8
10/6/22 - 0600 47.9 3 -29.5 31.9 S | 171 0.7 2.4 S | 186 0 50.8 0.00 0.00 47.2 53.1 0.000 0.8
10/6/22 - 0500 48.6 3 -29.0 32.3 SSE | 162 1.4 2.7 SE | 132 0 0.0 0.00 0.00 47.8 53.1 0.000 0.0
10/6/22 - 0400 49.6 3 -28.3 32.9 S | 174 0.8 2.7 SSW | 201 0 0.0 0.00 0.00 49.2 53.1 0.000 0.0
10/6/22 - 0300 51.0 3 -27.4 33.7 SSE | 153 0.9 3.1 S | 169 0 0.0 0.00 0.00 50.3 53.1 0.000 0.0
10/6/22 - 0200 51.7 3 -26.9 34.1 S | 183 1.1 2.7 SW | 214 0 0.0 0.00 0.00 50.8 53.1 0.000 0.0
10/6/22 - 0100 54.4 3 -25.1 35.6 SSW | 201 0.3 2.4 SSW | 200 0 0.0 0.00 0.00 43.9 88.2 0.149 0.0
10/6/22 - 0000 55.7 3 -24.1 36.3 S | 182 0.9 3.1 SSW | 196 0 0.0 0.00 0.00 43.9 88.2 0.149 0.0
10/5/22 - 2300 58.1 3 -22.5 37.6 SE | 126 1.3 3.1 ESE | 115 0 0.0 0.00 0.00 43.9 88.2 0.149 0.0
10/5/22 - 2200 60.3 3 -21.0 38.7 SE | 145 1.6 4.8 SSE | 154 0 0.0 0.00 0.00 43.9 88.2 0.149 0.0
10/5/22 - 2100 64.0 3 -18.5 40.5 SE | 142 1.8 4.4 SSE | 157 0 0.0 0.00 0.00 43.9 88.2 0.149 0.0
10/5/22 - 2000 73.0 3 -12.4 44.6 S | 171 1.9 4.8 S | 185 0 0.0 0.00 0.00 43.9 88.2 0.149 0.0
10/5/22 - 1900 80.6 3 -7.3 47.6 SSW | 196 4.1 9.1 SW | 215 38 0.0 0.00 0.00 43.9 88.2 0.149 0.0
10/5/22 - 1800 85.6 3 -3.9 49.4 SW | 221 4.6 8.8 SSW | 209 225 0.0 0.00 0.00 43.9 88.2 0.147 0.0
10/5/22 - 1700 87.2 3 -2.9 50.0 SW | 227 4.8 9.8 W | 280 420 0.0 0.00 0.00 43.9 88.2 0.138 0.0
10/5/22 - 1600 87.4 3 -2.7 50.1 W | 269 4.0 11.5 SW | 224 588 0.0 0.00 0.00 43.9 88.2 0.124 0.0
10/5/22 - 1500 86.5 3 -3.3 49.8 N | 349 3.7 8.8 NNW | 333 709 0.0 0.00 0.00 43.9 87.2 0.105 0.0
10/5/22 - 1400 84.3 3 -4.8 49.0 N | 5 3.0 7.1 NE | 46 764 0.0 0.00 0.00 43.9 86.2 0.084 0.0
10/5/22 - 1300 78.8 3 -8.5 47.0 N | 3 2.6 6.4 NNE | 19 774 0.0 0.00 0.00 43.9 81.9 0.062 0.0
10/5/22 - 1200 74.7 3 -11.2 45.3 NNE | 12 2.5 5.4 NNE | 22 711 0.0 0.00 0.00 43.9 76.4 0.041 0.0
10/5/22 - 1100 70.5 3 -14.1 43.5 N | 1 1.4 4.8 NNW | 342 583 0.0 0.00 0.00 43.9 73.1 0.022 0.0
10/5/22 - 1000 65.7 3 -17.3 41.3 N | 2 0.5 3.4 N | 0 412 0.0 0.00 0.00 43.9 68.0 0.009 0.0
10/5/22 - 0900 57.1 3 -23.2 37.0 N | 0 0.0 0.0 SE | 142 220 0.0 0.00 0.00 43.9 63.1 0.002 0.0
10/5/22 - 0800 44.8 3 -31.6 30.1 N | 0 0.0 0.0 SE | 127 37 0.0 0.00 0.00 43.9 49.7 0.000 0.0
10/5/22 - 0700 44.9 3 -31.6 30.2 N | 0 0.0 0.0 SSE | 152 0 0.0 0.00 0.00 44.5 49.7 0.000 0.0
10/5/22 - 0600 45.6 3 -31.1 30.6 SE | 145 0.9 2.7 SE | 125 0 0.0 0.00 0.00 45.1 49.7 0.000 0.0
10/5/22 - 0500 46.2 3 -30.7 30.9 S | 180 0.9 2.7 S | 187 0 0.0 0.00 0.00 45.9 49.7 0.000 0.0
10/5/22 - 0400 47.2 3 -30.0 31.5 S | 185 0.6 2.4 S | 178 0 0.0 0.00 0.00 46.3 49.7 0.000 0.0
10/5/22 - 0300 48.0 3 -29.4 32.0 SSE | 156 1.1 2.7 SSE | 151 0 0.0 0.00 0.00 47.5 49.7 0.000 0.0
10/5/22 - 0200 48.9 3 -28.8 32.5 S | 181 1.3 3.1 S | 182 0 0.0 0.00 0.00 48.0 49.7 0.000 0.0
10/5/22 - 0100 50.2 3 -27.9 33.3 SSE | 147 0.6 2.4 SE | 137 0 0.0 0.00 0.00 44.3 86.6 0.154 6.5
10/5/22 - 0000 51.6 3 -27.0 34.0 SSE | 167 1.1 3.1 SSE | 166 0 0.0 0.00 0.00 44.3 86.6 0.154 6.5
10/4/22 - 2300 54.6 3 -24.9 35.7 SE | 137 0.2 2.4 SE | 138 0 0.0 0.00 0.00 44.3 86.6 0.154 6.5
10/4/22 - 2200 57.4 3 -23.0 37.2 SE | 130 1.8 3.4 ESE | 121 0 0.0 0.00 0.00 44.3 86.6 0.154 6.5
10/4/22 - 2100 61.8 3 -20.0 39.4 SE | 142 2.9 4.4 SE | 126 0 0.0 0.00 0.00 44.3 86.6 0.154 6.5
10/4/22 - 2000 66.9 3 -16.6 41.9 S | 172 2.4 4.1 SSE | 156 0 0.0 0.00 0.00 44.3 86.6 0.153 6.5
10/4/22 - 1900 76.7 3 -9.9 46.1 SW | 217 2.4 6.1 SW | 235 46 0.0 0.00 0.00 44.3 86.6 0.152 6.5
10/4/22 - 1800 82.2 3 -6.2 48.2 WSW | 240 6.2 12.1 SW | 224 231 0.0 0.00 0.00 44.3 86.6 0.152 6.5
10/4/22 - 1700 84.9 3 -4.4 49.2 WSW | 240 6.8 11.5 SW | 235 427 0.0 0.00 0.00 44.3 86.6 0.142 6.5
10/4/22 - 1600 86.1 3 -3.7 49.6 SW | 235 4.4 10.5 WSW | 244 600 0.0 0.00 0.00 44.3 86.6 0.125 6.5
10/4/22 - 1500 84.8 3 -4.5 49.2 WNW | 301 2.9 9.8 SW | 224 722 0.0 0.00 0.00 44.3 85.9 0.106 6.5
10/4/22 - 1400 82.3 3 -6.2 48.2 N | 1 3.2 7.4 NW | 322 783 0.0 0.00 0.00 44.3 83.8 0.085 6.5
10/4/22 - 1300 78.6 3 -8.6 46.9 NNE | 13 3.0 7.4 NNE | 28 787 0.0 0.00 0.00 44.3 80.6 0.062 6.5
10/4/22 - 1200 75.1 3 -11.0 45.5 NNE | 26 1.6 5.4 NNE | 18 719 0.0 0.00 0.00 44.3 77.1 0.041 6.5
10/4/22 - 1100 69.9 3 -14.5 43.2 NE | 49 1.4 4.8 E | 88 591 0.0 0.00 0.00 44.3 72.4 0.023 6.5
10/4/22 - 1000 64.7 3 -18.0 40.8 N | 4 0.4 3.8 NE | 50 420 0.0 0.00 0.00 44.3 67.1 0.009 6.5
10/4/22 - 0900 56.0 3 -23.9 36.4 SE | 124 0.0 2.1 ESE | 112 226 32.8 0.00 0.00 44.3 62.0 0.002 6.5
Max 87.4 3 -2.7 50.1 - 6.8 12.1 - 787 60.0 0.00 0.00 50.8 88.2 0.154 6.5
Avg 63.9 3 -18.6 39.8 - 1.9 4.7 - 230 4.4 0.00 - - - - -
Min 44.8 3 -31.6 30.1 - 0.0 0.0 - 0 0.0 0.00 0.00 43.9 49.7 0.000 0.0
Total - - - - - - - - - - 0.00 - - - - -

Last 30 Days

Kelseyville-South

Daily Data | America/Los_Angeles
as of 10/6/22 9:46 AM PDT
Date Daily Max Temp (°F) Time of Max Temp Daily Min Temp (°F) Time of Min Temp Daily Rain (In) Monthly Rain (In) Seasonal Rainfall (In) Wind Spd (mph) Daily Max Wind (mph) Time of Max Wind Max Wind Dir (°) Daily ETo (in) 7 Day ETo (in) Daily Solar Rad (Cal/cm2) Dew Pt (°F) Max RH (%) Min RH (%) Daily Leaf Wet Hrs (hrs) Hrs 70-85F (hrs) Hrs > 95F (hrs) Powdery Mildew Stress (pts) GDDs (DL) GDDs (Mx/Mn) Seas GDDs (DL) Seas GDDs (Smpl) Hrs <= 32F (hrs) Hrs <= 28F (hrs) Chilling <=45F (hrs) Chill Hrs 32-45F (hrs) Utah Chilling (Units) Chill Portions Degree Hrs (hrs) Max 1 Min Rain (In) Max 1 Min Rain Time Max 15 Min Rain (In) Max 15 Min Precip Time Max 60 Min Rain (In) Max 60 Min Rain Time MinBV Day (V)
10/5/22 88.2 1553 43.9 0726 0.00 0.00 2.20 1.8 11.5 1553 SW | 224 0.149 1.10 471 -18.2 3 3 0.0 3.15 0.00 80 15.6 16.0 3,072 2,852 0.0 0.0 1.3 1.3 -6.0 0 159.4 - - - - - - 12.7
10/4/22 86.6 1559 44.3 0738 0.00 0.00 2.20 2.0 12.1 1724 SW | 224 0.154 1.12 481 -19.2 3 3 6.5 4.04 0.00 90 13.9 15.4 3,056 2,836 0.0 0.0 1.4 1.4 -4.0 0 137.5 - - - - - - 12.7
10/3/22 82.8 1535 42.2 0707 0.00 0.00 2.20 2.0 13.2 1454 W | 275 0.156 1.14 483 -20.3 3 3 0.0 8.18 0.00 100 13.2 12.5 3,042 2,821 0.0 0.0 4.8 4.8 -2.5 0 116.0 - - - - - - 12.7
10/2/22 81.2 1412 44.8 0713 0.00 0.00 2.20 2.6 15.2 1602 SW | 234 0.169 1.17 492 -20.9 3 3 3.7 7.13 0.00 90 11.2 13.0 3,029 2,809 0.0 0.0 0.2 0.2 -3.0 0 84.0 - - - - - - 12.7
10/1/22 85.9 1418 45.0 0634 0.00 0.00 2.20 2.7 14.5 1440 WSW | 243 0.174 1.17 491 -19.0 3 3 0.7 8.29 0.00 70 14.0 15.5 3,018 2,795 0.0 0.0 0.0 0.0 -5.5 0 127.1 - - - - - - 12.7
9/30/22 87.6 1549 44.9 0709 0.00 2.20 2.20 1.7 8.1 1349 N | 11 0.148 1.16 502 -18.3 3 3 3.7 4.21 0.00 50 15.1 16.3 3,004 2,780 0.0 0.0 0.1 0.1 -5.0 0 154.4 - - - - - - 12.7
9/29/22 83.5 1540 46.3 0651 0.00 2.20 2.20 1.7 9.1 1559 NNE | 25 0.147 1.16 498 -19.0 3 3 8.1 7.87 0.00 60 13.7 14.9 2,989 2,764 0.0 0.0 0.0 0.0 -5.5 0 114.8 - - - - - - 12.7
9/28/22 80.4 1428 43.0 0729 0.00 2.20 2.20 3.1 15.5 1621 WNW | 293 0.177 1.16 501 -19.7 3 3 0.0 8.60 0.00 40 13.2 11.7 2,975 2,749 0.0 0.0 0.7 0.7 -5.5 0 103.3 - - - - - - 12.7
9/27/22 83.2 1516 43.6 0710 0.00 2.20 2.20 2.5 13.8 1532 WNW | 282 0.174 1.14 523 -19.6 3 3 5.3 8.73 0.00 20 13.4 13.4 2,962 2,737 0.0 0.0 2.5 2.5 -4.0 0 121.3 - - - - - - 12.7
9/26/22 89.3 1545 49.2 0702 0.00 2.20 2.20 2.5 13.5 1630 SW | 231 0.179 1.07 505 -16.3 3 3 0.0 3.57 0.00 0 17.3 19.3 2,948 2,724 0.0 0.0 0.0 0.0 -9.5 0 184.2 - - - - - - 12.7
9/25/22 90.0 1608 45.9 0621 0.00 2.20 2.20 1.8 12.1 1247 N | 5 0.169 1.04 526 -16.7 3 3 5.6 3.39 0.00 0 17.4 18.0 2,931 2,705 0.0 0.0 0.0 0.0 -7.0 0 190.7 - - - - - - 12.7
9/24/22 90.3 1707 46.7 0618 0.00 2.20 2.20 1.6 11.5 1541 NW | 325 0.166 0.90 535 -17.3 3 3 7.0 3.49 0.00 10 16.2 18.5 2,914 2,687 0.0 0.0 0.0 0.0 -6.5 0 172.4 - - - - - - 12.7
9/23/22 86.3 1731 47.0 0704 0.00 2.20 2.20 1.3 8.1 1433 ENE | 62 0.154 0.88 535 -18.0 3 3 8.6 5.01 0.00 20 15.1 16.6 2,898 2,668 0.0 0.0 0.0 0.0 -7.5 0 144.6 - - - - - - 12.7
9/22/22 78.1 1853 45.1 0719 0.04 0.70 0.71 1.4 8.8 1527 NNE | 15 0.147 0.92 535 -21.1 3 3 10.4 6.02 0.00 30 11.0 11.6 2,882 2,651 0.0 0.0 0.0 0.0 -3.0 0 68.3 0.01 1254 0.02 1242 0.04 1309 12.6
9/21/22 71.6 1320 49.9 0101 0.00 0.66 0.67 2.3 15.8 1257 SW | 234 0.152 0.94 444 -21.0 3 3 0.9 1.91 0.00 10 10.3 10.7 2,871 2,640 0.0 0.0 0.0 0.0 -7.5 0 32.2 - - - - - - 12.7
9/20/22 67.4 1352 47.2 0647 0.03 0.66 0.67 1.5 11.8 1533 SW | 214 0.105 0.98 330 -23.3 3 3 8.6 0.00 0.00 20 7.2 7.3 2,861 2,629 0.0 0.0 0.0 0.0 -1.5 0 1.4 0.01 1303 0.01 1317 0.01 1402 12.7
9/19/22 67.6 1504 52.0 0732 0.06 0.63 0.64 3.5 21.5 1954 SE | 129 0.152 1.06 327 -22.0 9 3 7.9 0.00 0.00 30 8.8 9.8 2,854 2,622 0.0 0.0 0.0 0.0 -5.0 0 2.7 0.01 2112 0.01 2126 0.01 2211 12.6
9/18/22 59.9 1745 52.4 0501 0.55 0.57 0.58 5.2 22.2 1023 E | 87 0.031 1.11 82 47.6 99 3 17.9 0.00 0.00 40 6.2 6.2 2,845 2,612 0.0 0.0 0.0 0.0 2.5 0 0.0 0.01 0025 0.03 0513 0.11 0512 12.6
9/17/22 72.9 1406 44.1 0538 0.02 0.02 0.03 3.9 19.5 1416 WSW | 254 0.148 1.18 437 46.0 96 31 0.3 2.83 0.00 50 9.6 8.5 2,839 2,606 0.0 0.0 2.5 2.5 -2.5 0 26.5 0.01 0054 0.01 0101 0.02 0101 12.7
9/16/22 82.0 1558 43.6 0702 0.00 0.00 0.01 2.6 14.8 1351 WSW | 255 0.188 1.24 572 47.1 96 25 0.0 8.28 0.00 60 13.2 12.8 2,829 2,597 0.0 0.0 2.2 2.2 -4.0 0 109.9 - - - - - - 12.7
9/15/22 78.5 1625 41.1 0648 0.00 0.00 0.01 2.4 14.5 1627 WNW | 291 0.174 1.26 572 46.9 95 31 0.0 6.92 0.00 40 11.2 9.8 2,816 2,585 0.0 0.0 3.5 3.5 -3.0 0 72.8 - - - - - - 12.7
9/14/22 75.5 1559 43.3 0520 0.00 0.00 0.01 3.1 22.2 1444 SW | 231 0.181 1.33 584 45.2 96 30 0.0 5.59 0.00 20 9.7 9.4 2,805 2,575 0.0 0.0 3.1 3.1 -1.5 0 51.2 - - - - - - 12.7
9/13/22 78.8 1515 45.6 0713 0.00 0.00 0.01 3.4 15.8 1631 W | 274 0.196 1.39 602 47.6 97 30 0.0 7.67 0.00 30 11.9 12.2 2,795 2,565 0.0 0.0 0.0 0.0 -6.5 0 81.7 - - - - - - 12.7
9/12/22 90.8 1359 55.8 0041 0.00 0.00 0.01 3.0 16.2 1711 W | 279 0.192 1.46 490 44.1 78 13 0.0 3.76 0.00 10 21.4 23.3 2,783 2,553 0.0 0.0 0.0 0.0 -18.0 0 193.5 - - - - - - 12.7
9/11/22 84.0 1550 59.4 0433 0.00 0.00 0.01 1.2 10.1 1417 W | 262 0.099 1.50 236 37.6 56 5 0.0 13.14 0.00 20 21.5 21.7 2,762 2,530 0.0 0.0 0.0 0.0 -20.0 0 173.5 - - - - - - 12.7
9/10/22 88.5 1258 54.2 0705 0.00 0.00 0.01 3.3 17.8 1658 SSW | 206 0.205 1.62 516 40.3 69 11 0.0 4.86 0.00 0 20.7 21.4 2,741 2,508 0.0 0.0 0.0 0.0 -16.5 0 192.6 - - - - - - 12.7
9/9/22 102.6 1459 53.8 0654 0.00 0.00 0.01 2.6 13.8 1632 SSW | 205 0.217 1.65 536 44.0 73 10 0.0 2.27 5.60 0 27.1 28.2 2,720 2,487 0.0 0.0 0.0 0.0 -17.0 0 341.1 - - - - - - 12.7
9/8/22 105.5 1533 57.4 0648 0.00 0.00 0.01 2.4 13.5 1632 WNW | 288 0.237 1.70 600 43.7 65 8 0.0 3.19 7.50 0 30.1 31.4 2,693 2,459 0.0 0.0 0.0 0.0 -19.0 0 389.6 - - - - - - 12.7
9/7/22 102.0 1639 61.8 0441 0.00 0.00 0.01 2.9 15.8 1335 W | 275 0.246 1.71 584 43.6 63 10 0.0 4.11 8.05 0 32.4 31.9 2,663 2,427 0.0 0.0 0.0 0.0 -22.0 0 423.0 - - - - - - 12.7
9/6/22 111.0 1528 58.7 0644 0.00 0.00 0.01 2.8 24.9 1602 SSE | 158 0.258 1.71 610 44.5 65 5 0.0 4.11 7.94 0 32.8 34.9 2,630 2,395 0.0 0.0 0.0 0.0 -20.0 0 447.1 - - - - - - 12.7
Max 111.0 - 61.8 - 0.55 2.20 2.20 5.2 24.9 - - 0.258 1.71 610 47.6 99 31 17.9 13.14 8.05 - 32.8 34.9 - - 0.0 0.0 4.8 4.8 2.5 0 447.1 0.01 - 0.03 - 0.11 - 12.7
Avg - - - - - - - 2.5 - - - - - - 8.3 - - - 5.01 0.97 - 15.8 16.4 - - 0.0 0.0 0.7 0.7 -7.9 0 - - - - - - - -
Min 59.9 - 41.1 - 0.00 0.00 0.01 1.2 8.1 - - 0.031 0.88 82 -23.3 3 3 0.0 0.00 0.00 - 6.2 6.2 - - 0.0 0.0 0.0 0.0 -22.0 0 0.0 0.01 - 0.01 - 0.01 - 12.6
Total - - - - - - - - - - - - - - - - - - 150.31 29.09 - 474.2 492.1 - - 0.0 0.0 22.4 22.4 -236.0 - - - - - - - - -